Time;durP1;ratioP1;P1;durP2;ratioP2;P2;SDS_P1;SDS_P2;PMS_P1;PMS_P2;Temp;Humidity;BMP_temperature;BMP_pressure;BME280_temperature;BME280_humidity;BME280_pressure;Samples;Min_cycle;Max_cycle;Signal;HPM_P1;HPM_P2
2021/04/13 00:01:23;;;;;;;0.47;0.40;;;22.50;33.30;;;;;;5064568;28;20513;-65
2021/04/13 00:04:13;;;;;;;0.55;0.38;;;22.50;33.30;;;;;;5065187;28;20123;-65
2021/04/13 00:06:51;;;;;;;0.50;0.30;;;22.50;33.20;;;;;;5064474;28;20505;-67
2021/04/13 00:09:31;;;;;;;0.25;0.25;;;22.50;33.20;;;;;;5064940;28;20505;-67
2021/04/13 00:12:13;;;;;;;0.30;0.30;;;22.50;33.20;;;;;;5065042;28;20131;-66
2021/04/13 00:14:50;;;;;;;0.35;0.35;;;22.50;33.20;;;;;;5063775;28;20044;-66
2021/04/13 00:17:21;;;;;;;0.25;0.25;;;22.50;33.20;;;;;;5064024;28;20505;-66
2021/04/13 00:20:09;;;;;;;0.30;0.30;;;22.50;33.20;;;;;;5064811;28;20137;-65
2021/04/13 00:22:39;;;;;;;1.33;0.40;;;22.50;33.20;;;;;;5064462;28;20106;-65
2021/04/13 00:25:08;;;;;;;0.50;0.40;;;22.50;33.20;;;;;;5064825;28;20497;-63
2021/04/13 00:27:35;;;;;;;0.20;0.20;;;22.50;33.20;;;;;;5064564;28;20053;-64
2021/04/13 00:30:10;;;;;;;0.30;0.30;;;22.50;33.20;;;;;;5064559;28;20761;-66
2021/04/13 00:32:39;;;;;;;0.32;0.32;;;22.50;33.20;;;;;;5064875;28;20137;-66
2021/04/13 00:35:15;;;;;;;0.30;0.30;;;22.40;33.10;;;;;;5064897;28;20119;-66
2021/04/13 00:37:42;;;;;;;0.35;0.35;;;22.40;33.10;;;;;;5064667;28;20139;-65
2021/04/13 00:40:29;;;;;;;0.40;0.40;;;22.40;33.10;;;;;;5068853;28;20119;-65
2021/04/13 00:43:02;;;;;;;0.17;0.17;;;22.40;33.10;;;;;;5068779;28;20143;-63
2021/04/13 00:45:39;;;;;;;0.30;0.30;;;22.40;33.00;;;;;;5068903;28;20131;-65
2021/04/13 00:48:07;;;;;;;0.20;0.20;;;22.40;33.10;;;;;;5069123;28;20145;-63
2021/04/13 00:50:42;;;;;;;0.30;0.30;;;22.40;33.00;;;;;;5068552;28;20048;-65
2021/04/13 00:53:14;;;;;;;0.28;0.28;;;22.40;33.10;;;;;;5067968;28;20571;-66
2021/04/13 00:55:54;;;;;;;0.45;0.30;;;22.40;33.00;;;;;;5068334;28;20155;-65
2021/04/13 00:58:40;;;;;;;0.30;0.30;;;22.40;33.60;;;;;;5068609;28;20135;-65
2021/04/13 01:01:18;;;;;;;0.32;0.30;;;22.40;33.00;;;;;;5068318;28;20054;-65
2021/04/13 01:04:01;;;;;;;0.30;0.30;;;22.40;33.00;;;;;;5067919;28;20098;-66
2021/04/13 01:06:31;;;;;;;0.32;0.25;;;22.40;33.00;;;;;;5068387;28;20052;-67
2021/04/13 01:09:06;;;;;;;0.30;0.30;;;22.40;33.00;;;;;;5067727;28;20143;-66
2021/04/13 01:11:48;;;;;;;0.20;0.20;;;22.40;32.90;;;;;;5067993;28;20131;-65
2021/04/13 01:14:15;;;;;;;0.20;0.17;;;22.40;32.90;;;;;;5067392;28;20131;-66
2021/04/13 01:16:56;;;;;;;0.30;0.30;;;22.40;32.90;;;;;;5067343;28;20137;-65
2021/04/13 01:19:47;;;;;;;0.20;0.20;;;22.40;33.00;;;;;;5067228;28;20106;-64
2021/04/13 01:22:47;;;;;;;0.20;0.20;;;22.40;32.90;;;;;;5068084;28;20683;-66
2021/04/13 01:25:28;;;;;;;0.35;0.30;;;22.40;32.90;;;;;;5067093;28;20139;-67
2021/04/13 01:28:08;;;;;;;0.30;0.30;;;22.40;32.90;;;;;;5066811;28;20048;-66
2021/04/13 01:30:40;;;;;;;;;;;22.40;32.90;;;;;;5067769;28;20270;-66
2021/04/13 01:33:17;;;;;;;0.10;0.10;;;22.40;32.90;;;;;;5067003;28;19921;-65
2021/04/13 01:35:50;;;;;;;0.30;0.30;;;22.40;32.90;;;;;;5067411;28;20160;-65
2021/04/13 01:38:20;;;;;;;0.20;0.20;;;22.40;32.90;;;;;;5067195;28;20416;-64
2021/04/13 01:43:42;;;;;;;0.25;0.20;;;22.30;32.80;;;;;;5065987;28;20477;-67
2021/04/13 01:46:11;;;;;;;0.20;0.20;;;22.40;32.80;;;;;;5067179;28;20076;-67
2021/04/13 01:48:39;;;;;;;0.10;0.10;;;22.30;32.80;;;;;;5066767;28;20044;-65
2021/04/13 01:51:08;;;;;;;0.30;0.30;;;22.40;32.90;;;;;;5066281;28;20285;-65
2021/04/13 01:53:39;;;;;;;0.20;0.20;;;22.30;32.80;;;;;;5067927;28;20286;-64
2021/04/13 01:56:07;;;;;;;;;;;22.30;32.80;;;;;;5067881;28;20213;-65
2021/04/13 01:58:59;;;;;;;0.47;0.20;;;22.40;32.80;;;;;;5066811;28;20376;-64
2021/04/13 02:01:32;;;;;;;0.28;0.28;;;22.30;32.70;;;;;;5065382;28;20131;-67
2021/04/13 02:04:13;;;;;;;0.20;0.20;;;22.40;32.70;;;;;;5066336;28;20534;-67
2021/04/13 02:07:24;;;;;;;0.30;0.20;;;22.30;32.60;;;;;;5066289;28;20048;-66
2021/04/13 02:09:55;;;;;;;0.30;0.30;;;22.40;32.70;;;;;;5066222;28;20135;-66
2021/04/13 02:12:29;;;;;;;0.28;0.22;;;22.30;32.70;;;;;;5066426;28;20075;-64
2021/04/13 02:15:21;;;;;;;0.60;0.30;;;22.30;32.60;;;;;;5066678;28;20045;-64
2021/04/13 02:18:01;;;;;;;0.10;0.10;;;22.30;32.60;;;;;;5067026;28;20044;-64
2021/04/13 02:20:34;;;;;;;0.15;0.15;;;22.30;32.60;;;;;;5066735;28;20074;-63
2021/04/13 02:23:04;;;;;;;0.10;0.10;;;22.30;32.60;;;;;;5066845;28;20076;-63
2021/04/13 02:25:34;;;;;;;0.10;0.10;;;22.30;32.60;;;;;;5065889;28;20048;-63
2021/04/13 02:28:02;;;;;;;0.47;0.45;;;22.30;32.60;;;;;;5066264;28;20051;-63
2021/04/13 02:30:42;;;;;;;0.10;0.10;;;22.30;32.60;;;;;;5065411;28;20052;-63
2021/04/13 02:33:32;;;;;;;0.20;0.20;;;22.30;32.60;;;;;;5066479;28;20448;-65
2021/04/13 02:36:14;;;;;;;0.32;0.10;;;22.30;32.60;;;;;;5066087;28;20044;-65
2021/04/13 02:38:50;;;;;;;0.20;0.20;;;22.30;32.60;;;;;;5066499;28;20072;-63
2021/04/13 02:41:23;;;;;;;0.20;0.20;;;22.30;32.60;;;;;;5066182;28;20052;-63
2021/04/13 02:43:54;;;;;;;0.20;0.20;;;22.30;32.60;;;;;;5066060;28;20488;-63
2021/04/13 02:46:29;;;;;;;0.20;0.20;;;22.30;32.60;;;;;;5065784;28;20053;-63
2021/04/13 02:49:13;;;;;;;0.35;0.30;;;22.30;32.60;;;;;;5065886;28;20048;-63
2021/04/13 02:51:48;;;;;;;0.20;0.20;;;22.30;32.60;;;;;;5065617;28;20528;-65
2021/04/13 02:54:20;;;;;;;0.10;0.10;;;22.30;33.10;;;;;;5066002;28;20048;-64
2021/04/13 02:56:50;;;;;;;0.17;0.17;;;22.20;32.50;;;;;;5065781;28;20229;-67
2021/04/13 02:59:21;;;;;;;;;;;22.30;32.50;;;;;;5066296;28;20079;-67
2021/04/13 03:02:23;;;;;;;0.47;0.10;;;22.30;32.50;;;;;;5065567;28;20464;-67
2021/04/13 03:04:52;;;;;;;0.28;0.28;;;22.30;32.50;;;;;;5065690;28;20139;-66
2021/04/13 03:07:29;;;;;;;0.13;0.13;;;22.30;32.50;;;;;;5065427;28;20273;-65
2021/04/13 03:10:12;;;;;;;0.20;0.20;;;22.20;32.40;;;;;;5065658;28;20072;-65
2021/04/13 03:12:42;;;;;;;0.10;0.10;;;22.20;32.50;;;;;;5065388;28;20044;-64
2021/04/13 03:15:14;;;;;;;0.20;0.10;;;22.20;32.50;;;;;;5065624;28;20279;-64
2021/04/13 03:17:47;;;;;;;0.20;0.20;;;22.20;32.50;;;;;;5065494;28;20125;-63
2021/04/13 03:20:19;;;;;;;0.25;0.25;;;22.20;32.50;;;;;;5065198;28;20055;-63
2021/04/13 03:22:48;;;;;;;0.20;0.20;;;22.20;32.50;;;;;;5065729;28;20546;-66
2021/04/13 03:25:16;;;;;;;0.22;0.20;;;22.20;32.50;;;;;;5065377;28;20214;-66
2021/04/13 03:27:45;;;;;;;0.30;0.13;;;22.30;32.60;;;;;;5065135;28;20044;-66
2021/04/13 03:30:28;;;;;;;0.10;0.10;;;22.20;32.50;;;;;;5065227;28;20080;-68
2021/04/13 03:33:06;;;;;;;0.10;0.10;;;22.30;32.50;;;;;;5065268;28;20473;-68
2021/04/13 03:35:35;;;;;;;0.22;0.20;;;22.20;32.50;;;;;;5065812;28;20131;-66
2021/04/13 03:38:05;;;;;;;0.30;0.13;;;22.20;32.50;;;;;;5064666;28;20284;-67
2021/04/13 03:40:34;;;;;;;0.10;0.10;;;22.20;32.50;;;;;;5065547;28;20044;-66
2021/04/13 03:43:05;;;;;;;0.10;0.10;;;22.20;32.50;;;;;;5062399;28;20488;-66
2021/04/13 03:45:34;;;;;;;0.00;0.00;;;22.20;32.60;;;;;;5063746;28;20056;-66
2021/04/13 03:48:10;;;;;;;0.15;0.15;;;22.20;32.50;;;;;;5064104;28;20086;-65
2021/04/13 03:50:39;;;;;;;0.30;0.10;;;22.20;32.50;;;;;;5064387;28;20058;-64
2021/04/13 03:53:11;;;;;;;0.10;0.10;;;22.30;32.50;;;;;;5064630;28;20486;-65
2021/04/13 03:55:39;;;;;;;0.32;0.20;;;22.30;32.50;;;;;;5064168;28;20323;-63
2021/04/13 03:58:20;;;;;;;0.20;0.20;;;22.20;32.50;;;;;;5064224;28;20131;-63
2021/04/13 04:00:47;;;;;;;0.20;0.20;;;22.30;32.50;;;;;;5065167;28;20072;-65
2021/04/13 04:03:14;;;;;;;0.20;0.10;;;22.20;32.50;;;;;;5064598;28;20238;-66
2021/04/13 04:05:52;;;;;;;0.47;0.30;;;22.20;32.50;;;;;;5063345;28;20481;-65
2021/04/13 04:08:32;;;;;;;0.93;0.52;;;22.20;32.50;;;;;;5065284;28;20409;-68
2021/04/13 04:10:59;;;;;;;0.10;0.10;;;22.20;32.50;;;;;;5064853;28;20098;-68
2021/04/13 04:13:44;;;;;;;0.13;0.13;;;22.20;32.40;;;;;;5062454;28;20045;-67
2021/04/13 04:16:30;;;;;;;0.10;0.10;;;22.20;32.40;;;;;;5063224;28;20302;-67
2021/04/13 04:19:17;;;;;;;0.32;0.10;;;22.20;32.50;;;;;;5065060;28;20249;-66
2021/04/13 04:21:47;;;;;;;0.10;0.10;;;22.20;32.50;;;;;;5064499;28;20124;-66
2021/04/13 04:24:26;;;;;;;0.63;0.20;;;22.20;32.50;;;;;;5064258;28;20459;-66
2021/04/13 04:27:03;;;;;;;0.08;0.08;;;22.20;32.50;;;;;;5064367;28;20102;-65
2021/04/13 04:29:37;;;;;;;0.05;0.05;;;22.20;32.50;;;;;;5067217;28;20290;-66
2021/04/13 04:32:20;;;;;;;0.20;0.20;;;22.20;32.50;;;;;;5066143;28;20087;-66
2021/04/13 04:34:50;;;;;;;0.32;0.25;;;22.20;32.50;;;;;;5064397;28;20040;-67
2021/04/13 04:37:36;;;;;;;0.10;0.10;;;22.20;32.50;;;;;;5064696;28;20308;-67
2021/04/13 04:40:17;;;;;;;0.30;0.00;;;22.20;32.50;;;;;;5064292;28;20485;-66
2021/04/13 04:43:02;;;;;;;0.10;0.10;;;22.20;32.50;;;;;;5064240;28;20139;-66
2021/04/13 04:45:47;;;;;;;0.10;0.10;;;22.20;32.50;;;;;;5060908;28;20045;-65
2021/04/13 04:48:20;;;;;;;0.10;0.10;;;22.20;32.50;;;;;;5045710;28;20041;-64
2021/04/13 04:50:48;;;;;;;0.10;0.10;;;22.30;32.50;;;;;;5050292;28;20076;-63
2021/04/13 04:53:17;;;;;;;0.10;0.10;;;22.20;32.50;;;;;;5049591;28;20041;-64
2021/04/13 04:55:47;;;;;;;0.20;0.20;;;22.20;32.40;;;;;;5053142;28;20562;-63
2021/04/13 04:58:13;;;;;;;0.10;0.10;;;22.30;32.50;;;;;;5050794;28;20139;-66
2021/04/13 05:00:40;;;;;;;0.10;0.10;;;22.30;32.50;;;;;;5054048;28;20095;-66
2021/04/13 05:03:07;;;;;;;0.10;0.10;;;22.30;32.50;;;;;;5055561;28;20053;-65
2021/04/13 05:05:35;;;;;;;0.10;0.10;;;22.30;32.50;;;;;;5054315;28;20056;-64
2021/04/13 05:08:01;;;;;;;0.28;0.20;;;22.30;32.40;;;;;;5060432;28;20378;-64
2021/04/13 05:10:28;;;;;;;0.57;0.10;;;22.30;32.30;;;;;;5056368;28;21888;-63
2021/04/13 05:12:55;;;;;;;0.20;0.20;;;22.30;32.30;;;;;;5055556;28;20860;-64
2021/04/13 05:15:21;;;;;;;0.20;0.20;;;22.30;32.30;;;;;;5063303;28;20084;-64
2021/04/13 05:17:48;;;;;;;0.45;0.20;;;22.30;32.30;;;;;;5061472;28;20053;-66
2021/04/13 05:20:16;;;;;;;0.10;0.10;;;22.30;32.30;;;;;;5051808;28;20045;-66
2021/04/13 05:22:44;;;;;;;0.20;0.10;;;22.30;32.20;;;;;;5058994;28;20037;-65
2021/04/13 05:25:12;;;;;;;0.28;0.28;;;22.30;32.30;;;;;;5058046;28;20052;-65
2021/04/13 05:27:39;;;;;;;0.20;0.20;;;22.40;32.40;;;;;;5061161;28;20569;-64
2021/04/13 05:30:09;;;;;;;0.20;0.20;;;22.40;32.40;;;;;;5060931;28;20053;-67
2021/04/13 05:32:36;;;;;;;2.25;0.10;;;22.50;32.50;;;;;;5050200;28;20116;-67
2021/04/13 05:35:04;;;;;;;1.08;0.10;;;22.50;32.60;;;;;;5059382;28;20067;-64
2021/04/13 05:37:31;;;;;;;2.13;0.20;;;22.60;32.70;;;;;;5047293;28;20049;-65
2021/04/13 05:40:00;;;;;;;0.35;0.35;;;22.60;32.70;;;;;;5050938;28;20102;-64
2021/04/13 05:42:30;;;;;;;0.50;0.50;;;22.70;32.70;;;;;;5048563;28;20139;-64
2021/04/13 05:44:58;;;;;;;0.75;0.75;;;22.80;32.50;;;;;;5046901;28;20102;-66
2021/04/13 05:47:28;;;;;;;0.52;0.50;;;22.80;32.20;;;;;;5049282;28;20065;-65
2021/04/13 05:49:55;;;;;;;;;;;22.80;32.00;;;;;;5054966;28;20075;-62
2021/04/13 05:52:22;;;;;;;3.08;0.80;;;22.90;32.40;;;;;;5060368;28;19994;-63
2021/04/13 05:54:49;;;;;;;1.45;0.52;;;23.00;33.00;;;;;;5051512;28;20103;-65
2021/04/13 05:57:24;;;;;;;0.43;0.40;;;23.00;32.50;;;;;;5056242;28;20118;-64
2021/04/13 05:59:52;;;;;;;3.70;0.80;;;23.00;32.40;;;;;;5055484;28;20136;-64
2021/04/13 06:02:19;;;;;;;0.55;0.50;;;23.00;32.40;;;;;;5055582;28;20106;-63
2021/04/13 06:04:51;;;;;;;1.05;0.70;;;23.10;32.40;;;;;;5055371;28;20575;-65
2021/04/13 06:07:18;;;;;;;0.95;0.30;;;23.10;32.30;;;;;;5053119;28;20071;-63
2021/04/13 06:09:45;;;;;;;0.50;0.50;;;23.20;32.10;;;;;;5056859;28;20110;-63
2021/04/13 06:12:14;;;;;;;0.63;0.63;;;23.20;31.70;;;;;;5060612;28;20070;-63
2021/04/13 06:14:42;;;;;;;1.65;0.55;;;23.20;31.40;;;;;;5053107;28;20076;-64
2021/04/13 06:17:10;;;;;;;0.57;0.57;;;23.30;31.30;;;;;;5052936;28;20053;-62
2021/04/13 06:19:37;;;;;;;0.68;0.47;;;23.30;31.40;;;;;;5054875;28;20098;-62
2021/04/13 06:22:05;;;;;;;2.28;0.68;;;23.30;31.40;;;;;;5052477;28;20139;-62
2021/04/13 06:24:32;;;;;;;0.40;0.30;;;23.40;31.40;;;;;;5054030;28;20048;-66
2021/04/13 06:26:59;;;;;;;1.10;0.30;;;23.40;31.40;;;;;;5053732;28;20047;-70
2021/04/13 06:29:38;;;;;;;0.50;0.50;;;23.40;31.60;;;;;;5054503;28;20053;-70
2021/04/13 06:32:09;;;;;;;3.17;0.68;;;23.50;31.70;;;;;;5046868;28;20048;-73
2021/04/13 06:34:36;;;;;;;0.93;0.50;;;23.50;31.80;;;;;;5056845;28;20036;-73
2021/04/13 06:37:06;;;;;;;0.73;0.60;;;23.50;31.70;;;;;;5050461;28;20052;-73
2021/04/13 06:39:34;;;;;;;0.75;0.52;;;23.40;31.70;;;;;;5053134;28;20079;-71
2021/04/13 06:42:32;;;;;;;0.50;0.30;;;23.50;31.60;;;;;;5056580;28;20483;-70
2021/04/13 06:45:28;;;;;;;0.40;0.40;;;23.50;31.60;;;;;;5051749;28;20523;-63
2021/04/13 06:48:09;;;;;;;0.77;0.35;;;23.50;31.70;;;;;;5052672;28;20143;-62
2021/04/13 06:51:01;;;;;;;0.35;0.35;;;23.50;31.70;;;;;;5054981;28;20114;-63
2021/04/13 06:54:03;;;;;;;0.50;0.50;;;23.50;31.90;;;;;;5051049;28;20071;-69
2021/04/13 06:57:02;;;;;;;1.80;0.32;;;23.50;32.10;;;;;;5059911;28;20408;-68
2021/04/13 07:00:08;;;;;;;1.55;0.40;;;23.60;32.10;;;;;;5052491;28;20128;-67
2021/04/13 07:02:50;;;;;;;1.65;0.40;;;23.60;32.00;;;;;;5036008;28;20041;-66
2021/04/13 07:05:25;;;;;;;2.08;0.40;;;23.60;32.00;;;;;;5050547;28;20098;-63
2021/04/13 07:08:03;;;;;;;1.20;0.50;;;23.60;32.10;;;;;;5060318;28;20468;-62
2021/04/13 07:10:43;;;;;;;0.65;0.40;;;23.60;32.00;;;;;;5050351;28;20045;-69
2021/04/13 07:13:29;;;;;;;0.63;0.63;;;23.60;32.00;;;;;;5052027;28;20053;-66
2021/04/13 07:16:03;;;;;;;0.50;0.50;;;23.70;32.10;;;;;;5052575;28;20147;-67
2021/04/13 07:18:41;;;;;;;0.40;0.40;;;23.70;32.00;;;;;;5054349;28;20527;-64
2021/04/13 07:21:28;;;;;;;2.38;0.50;;;23.80;32.00;;;;;;5051188;28;20139;-67
2021/04/13 07:24:04;;;;;;;1.67;0.40;;;23.80;31.90;;;;;;5049257;28;20128;-66
2021/04/13 07:26:38;;;;;;;3.42;0.40;;;23.70;31.80;;;;;;5051482;28;20056;-67
2021/04/13 07:29:19;;;;;;;0.38;0.35;;;23.70;31.60;;;;;;5054533;28;20048;-69
2021/04/13 07:32:14;;;;;;;0.70;0.50;;;23.70;31.60;;;;;;5048022;28;20060;-67
2021/04/13 07:34:42;;;;;;;0.68;0.30;;;23.70;31.60;;;;;;5047753;28;20048;-67
2021/04/13 07:37:34;;;;;;;0.40;0.38;;;23.70;31.50;;;;;;5049073;28;20053;-65
2021/04/13 07:40:06;;;;;;;0.77;0.40;;;23.70;31.50;;;;;;5056792;28;20051;-66
2021/04/13 07:42:36;;;;;;;0.40;0.40;;;23.60;31.40;;;;;;5054300;28;20139;-63
2021/04/13 07:45:42;;;;;;;2.00;0.32;;;23.60;31.30;;;;;;5051896;28;20091;-63
2021/04/13 07:48:34;;;;;;;0.57;0.40;;;23.60;31.30;;;;;;5050256;28;20147;-63
2021/04/13 07:51:16;;;;;;;0.85;0.57;;;23.60;31.30;;;;;;5047713;28;20048;-64
2021/04/13 07:54:08;;;;;;;2.13;0.40;;;23.60;31.30;;;;;;5048599;28;20171;-64
2021/04/13 07:56:54;;;;;;;0.30;0.30;;;23.60;31.30;;;;;;5053332;28;20134;-63
2021/04/13 07:59:45;;;;;;;0.20;0.20;;;23.60;31.40;;;;;;5055932;28;20143;-63
2021/04/13 08:02:12;;;;;;;4.07;0.75;;;23.50;31.40;;;;;;5051672;28;20099;-63
2021/04/13 08:04:47;;;;;;;1.48;0.30;;;23.50;31.50;;;;;;5047187;28;20053;-64
2021/04/13 08:07:24;;;;;;;0.30;0.30;;;23.60;31.50;;;;;;5053317;28;20126;-64
2021/04/13 08:10:16;;;;;;;0.30;0.30;;;23.60;31.50;;;;;;5058793;28;20585;-63
2021/04/13 08:12:56;;;;;;;0.50;0.50;;;23.60;31.50;;;;;;5051520;28;20068;-64
2021/04/13 08:15:45;;;;;;;0.40;0.40;;;23.60;31.50;;;;;;5050155;28;20053;-63
2021/04/13 08:18:36;;;;;;;0.60;0.60;;;23.50;31.60;;;;;;5051653;28;20490;-64
2021/04/13 08:21:16;;;;;;;0.50;0.40;;;23.50;31.50;;;;;;5052474;28;20053;-64
2021/04/13 08:23:44;;;;;;;0.63;0.63;;;23.50;31.50;;;;;;5046675;28;20050;-65
2021/04/13 08:26:34;;;;;;;4.30;0.50;;;23.50;31.40;;;;;;5050840;28;20048;-63
2021/04/13 08:29:11;;;;;;;2.00;0.50;;;23.50;31.40;;;;;;5045035;28;20106;-63
2021/04/13 08:33:08;;;;;;;0.40;0.40;;;23.60;31.50;;;;;;5053023;28;20076;-66
2021/04/13 08:35:21;;;;;;;0.40;0.40;;;23.60;31.70;;;;;;5057605;28;20048;-64
2021/04/13 08:38:16;;;;;;;2.67;0.52;;;23.60;31.80;;;;;;5052439;28;20404;-63
2021/04/13 08:41:26;;;;;;;0.70;0.43;;;23.50;31.80;;;;;;5054567;28;20485;-65
2021/04/13 08:44:19;;;;;;;0.50;0.50;;;23.50;31.80;;;;;;5052061;28;20053;-65
2021/04/13 08:46:53;;;;;;;0.40;0.32;;;23.50;31.80;;;;;;5052456;28;20149;-69
2021/04/13 08:49:42;;;;;;;0.47;0.47;;;23.60;31.90;;;;;;5051685;28;20063;-62
2021/04/13 08:52:44;;;;;;;0.93;0.25;;;23.60;31.90;;;;;;5060033;28;20046;-68
2021/04/13 08:55:40;;;;;;;0.45;0.40;;;23.60;31.80;;;;;;5052826;28;20053;-66
2021/04/13 08:58:34;;;;;;;1.73;0.60;;;23.60;31.70;;;;;;5049396;28;20440;-66
2021/04/13 09:01:25;;;;;;;0.40;0.30;;;23.60;31.50;;;;;;5052947;28;20048;-63
2021/04/13 09:03:52;;;;;;;2.92;0.50;;;23.60;31.50;;;;;;5052666;28;20142;-63
2021/04/13 09:06:51;;;;;;;1.27;0.85;;;23.60;31.30;;;;;;5056995;28;20138;-68
2021/04/13 09:09:43;;;;;;;2.33;0.52;;;23.60;31.40;;;;;;5050875;28;20124;-69
2021/04/13 09:12:30;;;;;;;0.60;0.43;;;23.60;31.50;;;;;;5056645;28;20127;-71
2021/04/13 09:15:23;;;;;;;0.60;0.40;;;23.60;31.40;;;;;;5052967;28;20045;-70
2021/04/13 09:18:14;;;;;;;0.40;0.40;;;23.60;31.30;;;;;;5053172;28;20091;-68
2021/04/13 09:20:47;;;;;;;0.60;0.30;;;23.60;31.40;;;;;;5053553;28;20080;-64
2021/04/13 09:23:28;;;;;;;0.77;0.50;;;23.70;31.50;;;;;;5057157;28;20076;-63
2021/04/13 09:26:18;;;;;;;1.88;0.38;;;23.70;31.40;;;;;;5056666;28;20592;-65
2021/04/13 09:28:50;;;;;;;0.60;0.60;;;23.60;31.40;;;;;;5053167;28;20090;-65
2021/04/13 09:31:31;;;;;;;0.75;0.43;;;23.60;31.70;;;;;;5053148;28;20079;-63
2021/04/13 09:34:14;;;;;;;1.35;0.45;;;23.60;31.90;;;;;;5049937;28;20511;-63
2021/04/13 09:37:12;;;;;;;2.97;0.80;;;23.60;32.00;;;;;;5050560;28;20509;-63
2021/04/13 09:40:10;;;;;;;0.60;0.55;;;23.60;32.20;;;;;;5051995;28;20405;-64
2021/04/13 09:43:08;;;;;;;0.70;0.60;;;23.70;32.00;;;;;;5052842;28;20148;-64
2021/04/13 09:45:45;;;;;;;0.68;0.55;;;23.70;31.90;;;;;;5051314;28;20049;-64
2021/04/13 09:48:45;;;;;;;0.50;0.50;;;23.70;32.30;;;;;;5054409;28;20489;-64
2021/04/13 09:51:38;;;;;;;0.73;0.60;;;23.70;31.80;;;;;;5053017;28;20052;-65
2021/04/13 09:54:34;;;;;;;1.75;0.60;;;23.70;31.80;;;;;;5050183;28;20399;-64
2021/04/13 09:57:41;;;;;;;1.27;0.40;;;23.80;31.80;;;;;;5050315;28;20505;-65
2021/04/13 10:00:30;;;;;;;1.02;0.70;;;23.80;31.80;;;;;;5054840;28;20127;-65
2021/04/13 10:03:29;;;;;;;1.80;0.60;;;23.80;31.80;;;;;;5055520;28;20099;-63
2021/04/13 10:06:00;;;;;;;0.40;0.40;;;23.80;31.80;;;;;;5055426;28;20086;-64
2021/04/13 10:08:33;;;;;;;0.88;0.55;;;23.90;32.20;;;;;;5054587;28;20327;-63
2021/04/13 10:11:38;;;;;;;3.72;0.47;;;23.90;32.80;;;;;;5057622;28;20087;-64
2021/04/13 10:14:45;;;;;;;1.77;0.60;;;23.90;33.00;;;;;;5051445;28;20064;-64
2021/04/13 10:17:41;;;;;;;0.82;0.40;;;23.90;33.20;;;;;;5055886;28;20080;-64
2021/04/13 10:20:36;;;;;;;0.47;0.47;;;23.90;33.30;;;;;;5051895;28;20052;-63
2021/04/13 10:23:43;;;;;;;0.90;0.70;;;23.90;33.10;;;;;;5050481;28;20090;-67
2021/04/13 10:26:49;;;;;;;0.65;0.50;;;23.90;32.90;;;;;;5056176;28;20064;-66
2021/04/13 10:29:56;;;;;;;0.68;0.68;;;24.00;32.80;;;;;;5052052;28;20041;-67
2021/04/13 10:32:58;;;;;;;4.75;0.98;;;23.90;32.70;;;;;;5053004;28;20501;-65
2021/04/13 10:36:05;;;;;;;1.77;0.90;;;23.90;32.60;;;;;;5050417;28;20451;-63
2021/04/13 10:39:03;;;;;;;0.80;0.80;;;23.90;32.50;;;;;;5043967;28;20182;-64
2021/04/13 10:42:08;;;;;;;1.88;0.80;;;23.90;32.30;;;;;;5053340;28;20095;-65
2021/04/13 10:45:14;;;;;;;0.65;0.65;;;23.90;32.20;;;;;;5049502;28;20044;-63
2021/04/13 10:48:20;;;;;;;1.00;0.70;;;23.90;32.10;;;;;;5051741;28;20063;-64
2021/04/13 10:51:27;;;;;;;1.50;0.73;;;23.90;32.00;;;;;;5059163;28;20134;-64
2021/04/13 10:54:33;;;;;;;2.00;0.93;;;23.90;32.00;;;;;;5052668;28;20132;-62
2021/04/13 10:57:39;;;;;;;2.80;0.82;;;23.90;32.00;;;;;;5042632;28;21390;-61
2021/04/13 11:00:32;;;;;;;1.48;0.60;;;23.90;31.90;;;;;;5046845;28;20085;-66
2021/04/13 11:03:35;;;;;;;2.00;0.70;;;23.90;31.90;;;;;;5052890;28;20052;-65
2021/04/13 11:06:30;;;;;;;2.28;0.93;;;23.80;32.50;;;;;;5054095;28;20041;-69
2021/04/13 11:09:33;;;;;;;1.58;0.40;;;23.80;31.90;;;;;;5053662;28;20557;-73
2021/04/13 11:12:40;;;;;;;1.45;0.73;;;23.80;31.70;;;;;;5048514;28;20146;-71
2021/04/13 11:15:46;;;;;;;1.05;0.70;;;23.80;31.90;;;;;;5025932;28;20405;-71
2021/04/13 11:18:45;;;;;;;0.50;0.50;;;23.80;32.10;;;;;;5051412;28;20047;-72
2021/04/13 11:21:51;;;;;;;1.70;1.38;;;23.80;32.20;;;;;;5047621;28;20136;-67
2021/04/13 11:24:38;;;;;;;0.75;0.40;;;23.90;32.30;;;;;;5049673;28;20053;-64
2021/04/13 11:27:45;;;;;;;1.85;0.43;;;23.90;32.40;;;;;;5049416;28;20053;-67
2021/04/13 11:30:51;;;;;;;2.22;0.45;;;24.00;32.20;;;;;;5052596;28;20076;-67
2021/04/13 11:33:58;;;;;;;4.40;0.70;;;24.00;32.10;;;;;;5052924;28;20401;-66
2021/04/13 11:37:04;;;;;;;1.58;0.50;;;24.10;32.10;;;;;;5052205;28;20124;-67
2021/04/13 11:39:58;;;;;;;0.75;0.50;;;24.10;32.00;;;;;;5054113;28;20052;-64
2021/04/13 11:42:31;;;;;;;0.77;0.40;;;24.10;31.90;;;;;;5054730;28;20079;-68
2021/04/13 11:45:33;;;;;;;0.50;0.50;;;24.10;32.00;;;;;;5049291;28;20056;-65
2021/04/13 11:48:29;;;;;;;0.40;0.40;;;24.10;32.00;;;;;;5053257;28;20036;-61
2021/04/13 11:51:24;;;;;;;1.85;0.30;;;24.20;32.10;;;;;;5055659;28;20113;-67
2021/04/13 11:53:52;;;;;;;0.50;0.50;;;24.20;32.10;;;;;;5051255;28;20579;-65
2021/04/13 11:56:34;;;;;;;0.40;0.40;;;24.20;32.00;;;;;;5051450;28;20052;-71
2021/04/13 11:59:20;;;;;;;0.95;0.40;;;24.20;31.90;;;;;;5053275;28;20084;-70
2021/04/13 12:01:57;;;;;;;0.88;0.50;;;24.20;31.90;;;;;;5050409;28;20106;-71
2021/04/13 12:04:46;;;;;;;2.60;0.50;;;24.20;31.90;;;;;;5050706;28;20091;-65
2021/04/13 12:07:13;;;;;;;1.77;0.30;;;24.30;32.10;;;;;;5068557;28;20110;-65
2021/04/13 12:09:58;;;;;;;0.40;0.40;;;24.20;32.10;;;;;;5052417;28;20552;-68
2021/04/13 12:12:46;;;;;;;0.60;0.60;;;24.30;32.00;;;;;;5051149;28;20052;-67
2021/04/13 12:15:35;;;;;;;0.30;0.30;;;24.30;31.90;;;;;;5048616;28;20091;-70
2021/04/13 12:18:42;;;;;;;1.33;0.60;;;24.30;31.90;;;;;;5052057;28;20553;-68
2021/04/13 12:21:35;;;;;;;1.80;0.45;;;24.30;31.70;;;;;;5056652;28;20106;-71
2021/04/13 12:24:18;;;;;;;1.13;0.40;;;24.30;31.80;;;;;;5053608;28;20047;-71
2021/04/13 12:26:46;;;;;;;1.50;0.30;;;24.30;31.90;;;;;;5055794;28;20052;-76
2021/04/13 12:29:31;;;;;;;3.75;0.85;;;24.30;31.90;;;;;;5051538;28;20070;-63
2021/04/13 12:32:21;;;;;;;1.75;0.40;;;24.30;31.90;;;;;;5046710;28;20045;-64
2021/04/13 12:34:57;;;;;;;2.55;0.57;;;24.30;31.80;;;;;;5050709;28;20078;-66
2021/04/13 12:37:38;;;;;;;0.85;0.68;;;24.30;31.90;;;;;;5056922;28;20040;-67
2021/04/13 12:40:26;;;;;;;0.98;0.40;;;24.30;31.80;;;;;;5052295;28;20194;-66
2021/04/13 12:43:25;;;;;;;1.00;0.43;;;24.30;31.80;;;;;;5055251;28;20481;-64
2021/04/13 12:45:52;;;;;;;2.53;0.65;;;24.40;31.90;;;;;;5055216;28;20198;-65
2021/04/13 12:48:38;;;;;;;0.38;0.38;;;24.40;31.80;;;;;;5056700;28;20044;-65
2021/04/13 12:51:11;;;;;;;0.80;0.22;;;24.40;31.80;;;;;;5053449;28;20118;-67
2021/04/13 12:53:38;;;;;;;0.35;0.35;;;24.40;31.60;;;;;;5055035;28;20504;-68
2021/04/13 12:56:15;;;;;;;6.00;0.50;;;24.40;31.50;;;;;;5055263;28;20048;-64
2021/04/13 12:58:43;;;;;;;0.40;0.28;;;24.40;31.50;;;;;;5058242;28;20135;-61
2021/04/13 13:01:19;;;;;;;0.40;0.40;;;24.40;31.60;;;;;;5053927;28;20103;-62
2021/04/13 13:03:47;;;;;;;0.80;0.80;;;24.40;31.50;;;;;;5055067;28;20068;-64
2021/04/13 13:06:24;;;;;;;0.57;0.40;;;24.40;31.60;;;;;;5060387;28;20056;-65
2021/04/13 13:09:01;;;;;;;0.70;0.47;;;24.40;31.60;;;;;;5062379;28;20048;-69
2021/04/13 13:11:28;;;;;;;1.42;0.55;;;24.40;31.80;;;;;;5049115;28;20041;-62
2021/04/13 13:13:56;;;;;;;0.68;0.30;;;24.40;32.00;;;;;;5052845;28;20088;-71
2021/04/13 13:16:39;;;;;;;1.10;0.47;;;24.50;32.20;;;;;;5055318;28;20501;-71
2021/04/13 13:19:08;;;;;;;2.85;0.40;;;24.50;31.90;;;;;;5054065;28;20064;-67
2021/04/13 13:21:56;;;;;;;0.68;0.47;;;24.50;31.90;;;;;;5053052;28;20118;-68
2021/04/13 13:24:35;;;;;;;0.50;0.50;;;24.50;31.70;;;;;;5059612;28;20064;-64
2021/04/13 13:27:28;;;;;;;0.70;0.52;;;24.50;31.70;;;;;;5054998;28;20052;-66
2021/04/13 13:29:57;;;;;;;0.93;0.30;;;24.40;31.70;;;;;;5056472;28;20048;-66
2021/04/13 13:32:26;;;;;;;2.00;0.47;;;24.40;31.60;;;;;;5055212;28;20052;-66
2021/04/13 13:34:57;;;;;;;1.23;0.65;;;24.40;31.60;;;;;;5059260;28;20056;-69
2021/04/13 13:37:36;;;;;;;0.90;0.85;;;24.40;31.60;;;;;;5057015;28;20106;-67
2021/04/13 13:40:20;;;;;;;0.77;0.75;;;24.40;31.50;;;;;;5049820;28;20439;-67
2021/04/13 13:42:48;;;;;;;2.67;0.93;;;24.50;31.50;;;;;;5053631;28;20447;-66
2021/04/13 13:45:42;;;;;;;3.25;0.90;;;24.40;31.40;;;;;;5054619;28;20126;-65
2021/04/13 13:48:26;;;;;;;0.70;0.70;;;24.40;31.30;;;;;;5053133;28;20091;-65
2021/04/13 13:51:22;;;;;;;0.95;0.60;;;24.40;31.40;;;;;;5050716;28;20054;-63
2021/04/13 13:53:51;;;;;;;0.77;0.75;;;24.40;31.40;;;;;;5053367;28;20558;-61
2021/04/13 13:56:33;;;;;;;;;;;24.30;31.40;;;;;;5053856;28;20072;-62
2021/04/13 13:59:19;;;;;;;0.90;0.80;;;24.30;31.40;;;;;;5055798;28;19924;-64
2021/04/13 14:02:20;;;;;;;1.27;0.50;;;24.30;31.30;;;;;;5057215;28;20064;-66